Terminal Aerodrome Forecast
Issued by NWS

Home | Current Version | Previous Version | Text Only | Print | Product List | Glossary On
Versions: 1 2 3 4 5 6 7 8 9 10 11 12 13 14 15 16 17
000
FTUS43 KGRB 220212 AAA
TAFAUW
TAF AMD
KAUW 220212Z 2202/2224 21004KT P6SM SCT035 OVC080
      TEMPO 2202/2204 6SM -SHRA BKN035
     FM220400 28005KT P6SM SCT018 OVC035
     FM220800 31006KT P6SM BKN023
     FM221300 31011G16KT P6SM FEW023=

USA.gov is the U.S. government's official web portal to all federal, state and local government web resources and services.